Time;durP1;ratioP1;P1;durP2;ratioP2;P2;SDS_P1;SDS_P2;PMS_P1;PMS_P2;Temp;Humidity;BMP_temperature;BMP_pressure;BME280_temperature;BME280_humidity;BME280_pressure;Samples;Min_cycle;Max_cycle;Signal;HPM_P1;HPM_P2
2022/04/24 00:02:01;;;;;;;23.20;20.58;;;12.20;99.90;;;;;;5114526;28;20023;-73
2022/04/24 00:04:26;;;;;;;22.65;20.25;;;12.20;99.90;;;;;;5113570;28;20035;-74
2022/04/24 00:06:53;;;;;;;22.02;19.73;;;12.20;99.90;;;;;;5114424;28;20104;-74
2022/04/24 00:09:22;;;;;;;22.70;20.30;;;12.20;99.90;;;;;;5112473;28;20464;-74
2022/04/24 00:11:48;;;;;;;23.33;20.08;;;12.20;99.90;;;;;;5114451;28;20027;-74
2022/04/24 00:14:17;;;;;;;24.65;20.73;;;12.20;99.90;;;;;;5114254;28;20055;-74
2022/04/24 00:16:43;;;;;;;22.05;19.85;;;12.20;99.90;;;;;;5113289;28;20044;-74
2022/04/24 00:19:09;;;;;;;23.00;20.52;;;12.10;99.90;;;;;;5113923;28;20032;-73
2022/04/24 00:21:35;;;;;;;22.60;19.98;;;12.10;99.90;;;;;;5113663;28;20024;-74
2022/04/24 00:24:01;;;;;;;22.27;19.75;;;12.10;99.90;;;;;;5113991;28;20114;-74
2022/04/24 00:26:26;;;;;;;23.27;20.35;;;12.10;99.90;;;;;;5112766;28;20023;-74
2022/04/24 00:28:53;;;;;;;22.83;20.52;;;12.10;99.90;;;;;;5114164;28;20027;-74
2022/04/24 00:31:19;;;;;;;21.90;19.70;;;12.10;99.90;;;;;;5113806;28;20464;-74
2022/04/24 00:33:45;;;;;;;22.88;20.58;;;12.10;99.90;;;;;;5113487;28;20023;-73
2022/04/24 00:36:10;;;;;;;23.15;19.95;;;12.10;99.90;;;;;;5113954;28;20135;-74
2022/04/24 00:38:36;;;;;;;23.10;20.80;;;12.10;99.90;;;;;;5113570;28;20026;-74
2022/04/24 00:41:03;;;;;;;22.98;20.50;;;12.00;99.90;;;;;;5113889;28;20462;-74
2022/04/24 00:43:29;;;;;;;25.90;20.70;;;12.00;99.90;;;;;;5112991;28;20028;-74
2022/04/24 00:46:39;;;;;;;22.00;19.55;;;12.00;99.90;;;;;;5113413;28;20039;-74
2022/04/24 00:49:06;;;;;;;23.27;20.77;;;12.10;99.90;;;;;;5097662;28;20036;-74
2022/04/24 00:51:31;;;;;;;22.65;20.23;;;12.10;99.90;;;;;;5112999;28;20031;-74
2022/04/24 00:53:59;;;;;;;21.98;19.50;;;12.10;99.90;;;;;;5113551;28;20107;-74
2022/04/24 00:56:30;;;;;;;22.45;19.83;;;12.10;99.90;;;;;;5112937;28;20040;-72
2022/04/24 00:58:56;;;;;;;;;;;12.00;99.90;;;;;;5114012;28;20093;-73
2022/04/24 01:01:22;;;;;;;21.55;19.27;;;12.00;99.90;;;;;;5113454;28;19904;-74
2022/04/24 01:03:48;;;;;;;21.70;19.50;;;12.00;99.90;;;;;;5113136;28;20035;-73
2022/04/24 01:06:14;;;;;;;24.45;19.73;;;12.00;99.90;;;;;;5113087;28;20092;-73
2022/04/24 01:08:40;;;;;;;21.67;19.45;;;12.00;99.90;;;;;;5112741;28;20481;-73
2022/04/24 01:11:06;;;;;;;21.75;19.45;;;12.00;99.90;;;;;;5113459;28;20031;-73
2022/04/24 01:13:31;;;;;;;21.73;19.50;;;11.90;99.90;;;;;;5111046;28;20024;-73
2022/04/24 01:15:57;;;;;;;23.92;19.85;;;12.00;99.90;;;;;;5113216;28;20052;-73
2022/04/24 01:18:26;;;;;;;21.63;17.77;;;12.00;99.90;;;;;;5113127;28;20024;-73
2022/04/24 01:20:51;;;;;;;23.23;17.35;;;11.90;99.90;;;;;;5113126;28;20020;-73
2022/04/24 01:23:17;;;;;;;20.60;18.42;;;11.90;99.90;;;;;;5112957;28;20031;-73
2022/04/24 01:25:43;;;;;;;20.05;17.92;;;11.90;99.90;;;;;;5112397;28;20031;-73
2022/04/24 01:28:09;;;;;;;19.92;15.90;;;11.90;99.90;;;;;;5111682;28;20440;-73
2022/04/24 01:30:36;;;;;;;18.20;16.30;;;11.80;99.90;;;;;;5112313;28;20049;-73
2022/04/24 01:33:03;;;;;;;19.42;17.50;;;11.70;99.90;;;;;;5112864;28;20461;-72
2022/04/24 01:35:30;;;;;;;19.00;16.80;;;11.70;99.90;;;;;;5112026;28;20038;-73
2022/04/24 01:37:58;;;;;;;18.88;16.83;;;11.70;99.90;;;;;;5112571;27;20024;-72
2022/04/24 01:40:24;;;;;;;18.90;16.90;;;11.60;99.90;;;;;;5112699;28;20072;-73
2022/04/24 01:42:50;;;;;;;18.05;16.15;;;11.60;99.90;;;;;;5112036;28;20110;-73
2022/04/24 01:45:15;;;;;;;19.48;16.55;;;11.60;99.90;;;;;;5112664;28;20103;-73
2022/04/24 01:47:41;;;;;;;17.30;15.43;;;11.50;99.90;;;;;;5111997;28;20114;-73
2022/04/24 01:50:07;;;;;;;18.00;16.10;;;11.50;99.90;;;;;;5112610;28;20028;-74
2022/04/24 01:52:32;;;;;;;19.23;15.88;;;11.50;99.90;;;;;;5112232;28;20032;-74
2022/04/24 01:54:58;;;;;;;18.55;16.00;;;11.50;99.90;;;;;;5112418;28;20091;-73
2022/04/24 01:57:42;;;;;;;18.13;15.50;;;11.50;99.90;;;;;;5112344;28;20380;-73
2022/04/24 02:00:08;;;;;;;17.55;15.73;;;11.40;99.90;;;;;;5112153;28;20035;-73
2022/04/24 02:02:34;;;;;;;17.50;15.63;;;11.40;99.90;;;;;;5109993;28;20028;-74
2022/04/24 02:04:59;;;;;;;17.92;16.02;;;11.30;99.90;;;;;;5112329;28;20480;-74
2022/04/24 02:07:25;;;;;;;17.90;15.98;;;11.30;99.90;;;;;;5112247;28;20034;-74
2022/04/24 02:09:51;;;;;;;17.80;15.75;;;11.30;99.90;;;;;;5111644;28;20055;-73
2022/04/24 02:12:16;;;;;;;17.10;15.40;;;11.30;99.90;;;;;;5112354;28;20019;-73
2022/04/24 02:14:42;;;;;;;17.67;15.88;;;11.20;99.90;;;;;;5110033;28;20070;-73
2022/04/24 02:17:08;;;;;;;17.80;15.88;;;11.20;99.90;;;;;;5111835;28;20475;-73
2022/04/24 02:19:33;;;;;;;18.23;15.90;;;11.20;99.90;;;;;;5111815;28;20027;-74
2022/04/24 02:21:59;;;;;;;19.27;15.80;;;11.10;99.90;;;;;;5111691;28;20023;-73
2022/04/24 02:24:25;;;;;;;17.98;15.48;;;11.10;99.90;;;;;;5110671;28;20024;-73
2022/04/24 02:26:50;;;;;;;19.33;16.10;;;11.10;99.90;;;;;;5111032;28;20023;-73
2022/04/24 02:29:16;;;;;;;17.70;15.85;;;11.10;99.90;;;;;;5111974;28;20106;-73
2022/04/24 02:31:41;;;;;;;16.88;15.13;;;11.10;99.90;;;;;;5111459;28;20024;-73
2022/04/24 02:34:07;;;;;;;17.05;15.18;;;11.10;99.90;;;;;;5112327;28;20028;-74
2022/04/24 02:36:33;;;;;;;19.45;16.08;;;11.00;99.90;;;;;;5111393;28;20045;-74
2022/04/24 02:38:58;;;;;;;19.80;15.48;;;11.00;99.90;;;;;;5111726;28;20107;-73
2022/04/24 02:41:26;;;;;;;16.65;14.50;;;11.00;99.90;;;;;;5111766;28;20378;-74
2022/04/24 02:43:51;;;;;;;16.40;14.70;;;11.00;99.90;;;;;;5110018;28;20059;-72
2022/04/24 02:46:17;;;;;;;17.30;15.50;;;11.00;99.90;;;;;;5111617;28;20070;-73
2022/04/24 02:48:43;;;;;;;15.93;14.23;;;11.00;99.90;;;;;;5109936;28;20073;-74
2022/04/24 02:51:08;;;;;;;16.08;13.98;;;11.00;99.90;;;;;;5111426;28;20528;-74
2022/04/24 02:53:34;;;;;;;15.75;13.35;;;11.00;99.90;;;;;;5111167;28;20099;-73
2022/04/24 02:56:00;;;;;;;21.80;15.07;;;10.90;99.90;;;;;;5110504;28;20119;-74
2022/04/24 02:58:26;;;;;;;14.73;13.30;;;10.90;99.90;;;;;;5111429;28;20028;-74
2022/04/24 03:00:52;;;;;;;17.67;14.40;;;10.90;99.90;;;;;;5111021;28;20324;-74
2022/04/24 03:03:21;;;;;;;17.05;14.70;;;10.90;99.90;;;;;;5111706;28;20027;-74
2022/04/24 03:05:48;;;;;;;15.35;13.75;;;10.90;99.90;;;;;;5111068;28;20031;-74
2022/04/24 03:08:33;;;;;;;16.08;13.90;;;10.90;99.90;;;;;;5111742;28;20104;-74
2022/04/24 03:10:58;;;;;;;15.35;13.75;;;10.90;99.90;;;;;;5111626;28;20020;-73
2022/04/24 03:13:24;;;;;;;19.85;13.77;;;10.90;99.90;;;;;;5111397;28;20125;-74
2022/04/24 03:15:49;;;;;;;16.17;14.35;;;10.80;99.90;;;;;;5111059;28;20321;-73
2022/04/24 03:18:15;;;;;;;16.10;14.40;;;10.80;99.90;;;;;;5111436;28;20035;-74
2022/04/24 03:20:41;;;;;;;16.27;14.48;;;10.80;99.90;;;;;;5111266;28;20024;-74
2022/04/24 03:23:06;;;;;;;19.42;14.35;;;10.70;99.90;;;;;;5111707;28;20038;-73
2022/04/24 03:25:32;;;;;;;16.58;13.18;;;10.70;99.90;;;;;;5111626;28;20043;-74
2022/04/24 03:27:57;;;;;;;18.00;14.00;;;10.70;99.90;;;;;;5110851;28;20024;-74
2022/04/24 03:30:23;;;;;;;14.00;12.50;;;10.70;99.90;;;;;;5111617;28;20376;-75
2022/04/24 03:32:49;;;;;;;15.55;13.95;;;10.70;99.90;;;;;;5110663;28;20071;-75
2022/04/24 03:35:15;;;;;;;15.43;13.75;;;10.70;99.90;;;;;;5113420;28;20033;-74
2022/04/24 03:37:42;;;;;;;14.77;13.18;;;10.70;99.90;;;;;;5114438;28;20024;-74
2022/04/24 03:40:08;;;;;;;16.13;13.25;;;10.70;99.90;;;;;;5115421;28;20038;-74
2022/04/24 03:42:35;;;;;;;14.70;12.80;;;10.70;99.90;;;;;;5113387;28;20391;-78
2022/04/24 03:45:02;;;;;;;14.23;12.73;;;10.60;99.90;;;;;;5115016;28;20038;-73
2022/04/24 03:47:28;;;;;;;17.00;13.00;;;10.60;99.90;;;;;;5115002;28;20425;-74
2022/04/24 03:49:54;;;;;;;14.32;12.82;;;10.60;99.90;;;;;;5114042;28;20035;-74
2022/04/24 03:52:19;;;;;;;13.88;12.38;;;10.60;99.90;;;;;;5114714;28;20043;-74
2022/04/24 03:54:45;;;;;;;14.43;12.82;;;10.60;99.90;;;;;;5114213;28;20023;-73
2022/04/24 03:57:11;;;;;;;16.17;13.15;;;10.60;99.90;;;;;;5114646;28;20031;-74
2022/04/24 03:59:37;;;;;;;14.35;12.85;;;10.60;99.90;;;;;;5114035;28;20486;-73
2022/04/24 04:02:03;;;;;;;15.38;12.05;;;10.60;99.90;;;;;;5113913;28;20106;-73
2022/04/24 04:04:29;;;;;;;14.30;12.73;;;10.60;99.90;;;;;;5114237;28;20582;-73
2022/04/24 04:06:55;;;;;;;15.00;12.93;;;10.60;99.90;;;;;;5113705;28;20032;-73
2022/04/24 04:09:21;;;;;;;17.08;13.27;;;10.60;99.90;;;;;;5114560;27;20048;-73
2022/04/24 04:11:47;;;;;;;14.52;12.70;;;10.60;99.90;;;;;;5113832;28;20112;-74
2022/04/24 04:14:12;;;;;;;18.45;13.48;;;10.60;99.90;;;;;;5114146;28;20044;-73
2022/04/24 04:16:38;;;;;;;16.40;12.18;;;10.70;99.90;;;;;;5113291;28;20032;-74
2022/04/24 04:19:04;;;;;;;14.65;12.20;;;10.60;99.90;;;;;;5114627;28;20031;-73
2022/04/24 04:21:30;;;;;;;15.07;12.85;;;10.70;99.90;;;;;;5114291;28;20046;-73
2022/04/24 04:23:55;;;;;;;15.90;12.00;;;10.70;99.90;;;;;;5113459;28;20020;-74
2022/04/24 04:26:21;;;;;;;15.15;12.50;;;10.70;99.90;;;;;;5113822;28;20024;-74
2022/04/24 04:28:48;;;;;;;14.27;11.95;;;10.70;99.90;;;;;;5113546;28;20480;-74
2022/04/24 04:31:14;;;;;;;13.32;11.40;;;10.70;99.90;;;;;;5114004;28;20114;-72
2022/04/24 04:33:40;;;;;;;17.73;11.85;;;10.70;99.90;;;;;;5113472;28;20023;-75
2022/04/24 04:36:06;;;;;;;14.27;12.63;;;10.70;99.90;;;;;;5112770;28;20401;-74
2022/04/24 04:38:32;;;;;;;12.93;11.60;;;10.80;99.90;;;;;;5114317;28;20035;-74
2022/04/24 04:40:57;;;;;;;13.70;12.32;;;10.80;99.90;;;;;;5113074;28;20023;-74
2022/04/24 04:43:26;;;;;;;17.77;12.45;;;10.80;99.90;;;;;;5113758;28;20020;-74
2022/04/24 04:45:52;;;;;;;13.85;12.10;;;10.90;99.90;;;;;;5112834;28;20051;-74
2022/04/24 04:48:18;;;;;;;15.88;12.68;;;10.90;99.90;;;;;;5113728;28;20023;-73
2022/04/24 04:50:44;;;;;;;14.30;12.80;;;11.00;99.90;;;;;;5113166;28;20026;-74
2022/04/24 04:53:10;;;;;;;15.55;13.20;;;11.00;99.90;;;;;;5113489;28;20060;-74
2022/04/24 04:58:20;;;;;;;14.55;12.98;;;11.10;99.90;;;;;;5113317;28;20034;-74
2022/04/24 05:00:45;;;;;;;16.83;13.68;;;11.10;99.90;;;;;;5112696;28;20023;-74
2022/04/24 05:03:11;;;;;;;14.13;12.75;;;11.20;99.90;;;;;;5113081;28;20028;-74
2022/04/24 05:05:36;;;;;;;14.70;12.85;;;11.20;99.90;;;;;;5113077;28;20055;-74
2022/04/24 05:08:02;;;;;;;17.92;12.93;;;11.30;99.90;;;;;;5112733;28;20023;-74
2022/04/24 05:10:28;;;;;;;13.85;12.35;;;11.30;99.90;;;;;;5111996;28;20028;-73
2022/04/24 05:12:54;;;;;;;14.85;12.93;;;11.40;99.90;;;;;;5110432;28;20073;-74
2022/04/24 05:15:21;;;;;;;14.93;13.05;;;11.50;99.90;;;;;;5112933;28;20067;-74
2022/04/24 05:17:47;;;;;;;14.13;12.63;;;11.60;99.90;;;;;;5111962;28;20486;-71
2022/04/24 05:20:13;;;;;;;13.60;11.35;;;11.60;99.90;;;;;;5113144;28;20361;-73
2022/04/24 05:22:40;;;;;;;16.02;11.43;;;11.70;99.90;;;;;;5112979;28;20027;-73
2022/04/24 05:25:09;;;;;;;13.90;11.27;;;11.80;99.90;;;;;;5112388;28;20031;-73
2022/04/24 05:27:36;;;;;;;13.70;11.65;;;11.80;99.90;;;;;;5112681;28;20056;-75
2022/04/24 05:30:07;;;;;;;11.77;10.65;;;11.90;99.90;;;;;;5112123;28;20104;-73
2022/04/24 05:32:47;;;;;;;15.77;10.82;;;11.90;99.90;;;;;;5112599;28;20531;-73
2022/04/24 05:35:13;;;;;;;11.18;10.07;;;11.90;99.90;;;;;;5112728;28;20511;-74
2022/04/24 05:37:40;;;;;;;11.38;10.15;;;12.00;99.90;;;;;;5112823;28;20027;-73
2022/04/24 05:40:06;;;;;;;10.63;9.63;;;12.00;99.90;;;;;;5110620;28;20431;-73
2022/04/24 05:42:32;;;;;;;10.55;9.55;;;12.10;99.90;;;;;;5112696;28;20156;-73
2022/04/24 05:44:59;;;;;;;13.27;10.10;;;12.20;99.90;;;;;;5112022;28;20130;-73
2022/04/24 05:47:25;;;;;;;9.85;8.55;;;12.20;99.90;;;;;;5112168;28;20400;-73
2022/04/24 05:49:51;;;;;;;10.00;8.25;;;12.30;99.90;;;;;;5111592;28;20414;-73
2022/04/24 05:52:16;;;;;;;11.40;8.75;;;12.40;99.90;;;;;;5112690;28;20111;-74
2022/04/24 05:54:42;;;;;;;7.85;7.07;;;12.50;99.90;;;;;;5112305;28;20046;-73
2022/04/24 05:57:08;;;;;;;7.28;5.80;;;12.70;99.90;;;;;;5111771;28;20346;-72
2022/04/24 05:59:33;;;;;;;12.07;6.30;;;12.90;99.90;;;;;;5112101;28;20127;-73
2022/04/24 06:01:59;;;;;;;7.40;5.80;;;13.10;99.90;;;;;;5111922;28;20030;-74
2022/04/24 06:04:25;;;;;;;8.23;5.53;;;13.30;99.90;;;;;;5112359;28;20019;-74
2022/04/24 06:06:50;;;;;;;7.10;4.57;;;13.50;99.90;;;;;;5111244;28;20023;-74
2022/04/24 06:09:18;;;;;;;5.85;4.80;;;13.60;99.90;;;;;;5112231;28;20062;-73
2022/04/24 06:11:44;;;;;;;8.50;4.85;;;13.80;99.90;;;;;;5111420;28;20059;-75
2022/04/24 06:14:09;;;;;;;6.82;4.95;;;13.90;99.90;;;;;;5111206;28;20075;-73
2022/04/24 06:16:36;;;;;;;7.63;5.40;;;14.00;99.90;;;;;;5111782;28;20038;-73
2022/04/24 06:19:02;;;;;;;5.85;4.65;;;14.20;99.90;;;;;;5110274;28;20044;-72
2022/04/24 06:21:28;;;;;;;8.20;5.40;;;14.20;99.90;;;;;;5111549;28;20368;-73
2022/04/24 06:23:54;;;;;;;8.27;4.53;;;14.30;99.90;;;;;;5109777;28;20032;-73
2022/04/24 06:26:39;;;;;;;5.57;4.70;;;14.40;99.10;;;;;;5111651;28;20027;-72
2022/04/24 06:29:05;;;;;;;8.57;4.93;;;14.40;98.30;;;;;;5110923;28;20134;-73
2022/04/24 06:31:31;;;;;;;6.78;4.38;;;14.40;98.30;;;;;;5112004;28;20023;-73
2022/04/24 06:33:56;;;;;;;6.50;4.50;;;14.40;97.70;;;;;;5111099;28;20058;-74
2022/04/24 06:36:22;;;;;;;6.55;3.80;;;14.30;97.90;;;;;;5110664;28;20034;-73
2022/04/24 06:38:47;;;;;;;5.25;3.70;;;14.30;97.90;;;;;;5111139;28;20027;-74
2022/04/24 06:41:13;;;;;;;7.22;3.53;;;14.30;97.70;;;;;;5111855;28;20461;-74
2022/04/24 06:43:39;;;;;;;6.07;3.53;;;14.20;97.90;;;;;;5111812;28;20435;-73
2022/04/24 06:46:04;;;;;;;12.10;3.08;;;14.20;98.00;;;;;;5111248;28;20356;-74
2022/04/24 06:48:30;;;;;;;5.28;2.45;;;14.20;97.80;;;;;;5111477;28;20027;-73
2022/04/24 06:50:56;;;;;;;7.78;3.10;;;14.20;97.60;;;;;;5111246;28;20440;-74
2022/04/24 06:53:23;;;;;;;5.90;2.88;;;14.20;97.50;;;;;;5111825;28;20027;-74
2022/04/24 06:55:49;;;;;;;6.43;2.78;;;14.20;97.60;;;;;;5109553;28;20514;-74
2022/04/24 06:58:16;;;;;;;10.45;2.83;;;14.20;97.50;;;;;;5111550;28;20028;-74
2022/04/24 07:00:44;;;;;;;9.77;2.88;;;14.10;97.80;;;;;;5111576;28;20030;-74
2022/04/24 07:03:20;;;;;;;5.20;2.25;;;14.20;97.80;;;;;;5111044;28;20137;-74
2022/04/24 07:05:47;;;;;;;6.45;2.47;;;14.20;97.90;;;;;;5111559;28;20142;-77
2022/04/24 07:08:13;;;;;;;8.38;2.28;;;14.20;97.70;;;;;;5112305;28;20020;-75
2022/04/24 07:10:39;;;;;;;7.70;2.70;;;14.20;97.30;;;;;;5115137;28;20028;-74
2022/04/24 07:13:05;;;;;;;7.65;2.40;;;14.10;97.20;;;;;;5114745;28;20078;-72
2022/04/24 07:15:33;;;;;;;6.10;2.53;;;14.20;97.10;;;;;;5097008;28;20066;-74
2022/04/24 07:18:17;;;;;;;6.88;2.20;;;14.20;96.80;;;;;;5115004;28;20023;-74
2022/04/24 07:20:43;;;;;;;5.20;1.83;;;14.20;96.30;;;;;;5115396;28;20022;-74
2022/04/24 07:23:11;;;;;;;8.20;1.88;;;14.20;95.80;;;;;;5114890;28;20019;-74
2022/04/24 07:25:44;;;;;;;8.07;2.67;;;14.20;95.40;;;;;;5115530;28;20038;-74
2022/04/24 07:28:11;;;;;;;7.10;2.17;;;14.20;95.20;;;;;;5114765;28;20452;-73
2022/04/24 07:30:36;;;;;;;6.60;2.00;;;14.30;95.00;;;;;;5115247;28;20020;-74
2022/04/24 07:33:02;;;;;;;5.57;2.33;;;14.30;94.80;;;;;;5114602;28;20073;-73
2022/04/24 07:35:30;;;;;;;5.57;1.92;;;14.30;94.60;;;;;;5115148;28;20024;-73
2022/04/24 07:37:56;;;;;;;6.43;2.00;;;14.30;94.50;;;;;;5114268;28;20016;-74
2022/04/24 07:40:23;;;;;;;7.35;2.20;;;14.30;94.50;;;;;;5114683;28;20524;-74
2022/04/24 07:42:56;;;;;;;6.15;2.15;;;14.30;94.60;;;;;;5114333;28;20144;-77
2022/04/24 07:45:33;;;;;;;8.13;2.78;;;14.30;94.60;;;;;;5114888;28;20382;-74
2022/04/24 07:48:00;;;;;;;9.45;2.38;;;14.30;94.50;;;;;;5114223;28;20088;-72
2022/04/24 07:50:30;;;;;;;5.13;2.33;;;14.30;94.40;;;;;;5114883;28;20106;-73
2022/04/24 07:52:57;;;;;;;10.20;2.30;;;14.40;94.40;;;;;;5114287;28;20027;-73
2022/04/24 07:55:24;;;;;;;6.50;2.10;;;14.40;94.40;;;;;;5114756;28;20038;-73
2022/04/24 07:57:53;;;;;;;5.82;2.13;;;14.40;94.50;;;;;;5114297;28;20027;-73
2022/04/24 08:00:21;;;;;;;7.53;2.30;;;14.40;94.60;;;;;;5114442;27;20552;-73
2022/04/24 08:03:00;;;;;;;6.05;2.45;;;14.50;94.30;;;;;;5114468;28;20031;-74
2022/04/24 08:05:27;;;;;;;10.13;2.85;;;14.50;94.10;;;;;;5114972;28;20035;-73
2022/04/24 08:07:53;;;;;;;7.03;2.28;;;14.50;94.20;;;;;;5114064;28;20337;-74
2022/04/24 08:10:25;;;;;;;5.65;2.00;;;14.50;94.20;;;;;;5114815;28;20028;-73
2022/04/24 08:12:51;;;;;;;6.28;2.20;;;14.60;94.30;;;;;;5114454;28;20031;-73
2022/04/24 08:15:18;;;;;;;6.45;2.03;;;14.60;94.10;;;;;;5114412;28;20051;-73
2022/04/24 08:17:44;;;;;;;6.72;1.83;;;14.60;93.90;;;;;;5112863;28;20062;-74
2022/04/24 08:20:11;;;;;;;7.63;1.90;;;14.70;93.80;;;;;;5112960;28;20468;-74
2022/04/24 08:22:44;;;;;;;8.50;2.13;;;14.70;93.70;;;;;;5113990;28;20035;-74
2022/04/24 08:25:11;;;;;;;7.97;2.28;;;14.80;93.70;;;;;;5113658;28;20131;-74
2022/04/24 08:27:37;;;;;;;8.40;2.38;;;14.80;93.70;;;;;;5114513;28;20046;-75
2022/04/24 08:30:08;;;;;;;5.57;2.15;;;14.80;93.70;;;;;;5113315;28;20468;-74
2022/04/24 08:32:34;;;;;;;8.38;2.15;;;14.90;93.80;;;;;;5113793;28;20106;-73
2022/04/24 08:35:00;;;;;;;6.60;2.38;;;14.90;93.30;;;;;;5113310;28;20028;-74
2022/04/24 08:37:26;;;;;;;7.53;2.83;;;14.90;93.20;;;;;;5113910;28;20324;-74
2022/04/24 08:39:53;;;;;;;6.70;1.77;;;15.00;93.20;;;;;;5113649;28;20035;-73
2022/04/24 08:42:21;;;;;;;7.85;2.00;;;15.00;92.60;;;;;;5114049;28;20047;-74
2022/04/24 08:44:51;;;;;;;8.15;2.40;;;15.10;92.70;;;;;;5113782;28;20199;-74
2022/04/24 08:47:20;;;;;;;7.50;2.25;;;15.10;92.60;;;;;;5113375;28;20037;-74
2022/04/24 08:50:04;;;;;;;11.38;2.47;;;15.10;92.60;;;;;;5114079;28;20026;-73
2022/04/24 08:52:31;;;;;;;9.85;2.42;;;15.20;92.40;;;;;;5113846;28;20030;-73
2022/04/24 08:54:58;;;;;;;7.45;2.05;;;15.20;92.40;;;;;;5113041;28;20110;-76
2022/04/24 08:57:30;;;;;;;7.57;2.40;;;15.20;92.20;;;;;;5113621;28;20108;-73
2022/04/24 08:59:57;;;;;;;7.80;2.42;;;15.20;92.00;;;;;;5112993;28;20051;-73
2022/04/24 09:02:23;;;;;;;7.80;1.88;;;15.30;91.90;;;;;;5113185;28;20031;-74
2022/04/24 09:04:49;;;;;;;9.02;2.03;;;15.30;91.50;;;;;;5113443;28;20210;-74
2022/04/24 09:07:17;;;;;;;10.52;2.70;;;15.30;91.50;;;;;;5113018;28;20270;-73
2022/04/24 09:09:48;;;;;;;7.68;2.17;;;15.40;91.40;;;;;;5113304;28;20026;-74
2022/04/24 09:12:25;;;;;;;11.52;2.17;;;15.50;90.90;;;;;;5112713;28;20067;-73
2022/04/24 09:14:54;;;;;;;5.88;1.58;;;15.50;90.80;;;;;;5113231;28;20039;-72
2022/04/24 09:17:28;;;;;;;5.50;1.70;;;15.50;90.10;;;;;;5112738;28;20035;-74
2022/04/24 09:19:55;;;;;;;5.00;2.00;;;15.60;89.30;;;;;;5113311;28;20024;-74
2022/04/24 09:22:24;;;;;;;9.90;2.20;;;15.60;88.60;;;;;;5113111;28;20028;-73
2022/04/24 09:24:56;;;;;;;8.68;2.05;;;15.70;88.00;;;;;;5113020;28;20024;-73
2022/04/24 09:27:27;;;;;;;11.00;2.72;;;15.70;87.10;;;;;;5112873;28;20032;-74
2022/04/24 09:30:14;;;;;;;7.82;1.80;;;15.70;87.90;;;;;;5113002;28;20027;-76
2022/04/24 09:32:54;;;;;;;8.43;2.25;;;15.80;87.20;;;;;;5111805;28;20092;-73
2022/04/24 09:35:31;;;;;;;9.82;2.00;;;15.80;86.80;;;;;;5112132;28;20062;-74
2022/04/24 09:38:14;;;;;;;8.60;2.22;;;15.90;86.70;;;;;;5112714;28;20055;-77
2022/04/24 09:40:49;;;;;;;7.78;2.20;;;15.90;87.10;;;;;;5112518;28;20020;-72
2022/04/24 09:43:17;;;;;;;7.80;2.33;;;15.90;86.20;;;;;;5112177;28;20023;-74
2022/04/24 09:45:51;;;;;;;12.50;2.65;;;15.90;85.60;;;;;;5112795;28;20111;-72
2022/04/24 09:48:20;;;;;;;10.32;2.30;;;15.90;85.40;;;;;;5112062;28;20034;-73
2022/04/24 09:50:50;;;;;;;14.63;2.28;;;15.90;84.90;;;;;;5112461;28;20035;-73
2022/04/24 09:53:20;;;;;;;15.30;2.35;;;16.00;84.50;;;;;;5111510;28;20027;-71
2022/04/24 09:55:49;;;;;;;10.43;2.28;;;16.00;84.60;;;;;;5112560;28;20055;-73
2022/04/24 09:58:21;;;;;;;9.50;2.53;;;16.00;84.00;;;;;;5111516;28;20031;-72
2022/04/24 10:00:47;;;;;;;7.28;1.98;;;16.10;83.40;;;;;;5092142;28;20016;-73
2022/04/24 10:03:15;;;;;;;10.50;2.53;;;16.10;82.80;;;;;;5091246;28;20085;-74
2022/04/24 10:05:43;;;;;;;8.27;2.22;;;16.10;82.20;;;;;;5092072;28;20107;-73
2022/04/24 10:08:09;;;;;;;8.20;1.88;;;16.20;81.50;;;;;;5091335;28;20110;-73
2022/04/24 10:10:35;;;;;;;10.52;1.92;;;16.20;80.70;;;;;;5091959;28;20032;-73
2022/04/24 10:13:04;;;;;;;6.68;2.10;;;16.20;80.30;;;;;;5091320;28;20032;-72
2022/04/24 10:15:32;;;;;;;10.38;1.90;;;16.20;79.90;;;;;;5091713;28;20067;-74
2022/04/24 10:18:38;;;;;;;8.32;2.15;;;16.20;79.70;;;;;;5091966;28;20016;-73
2022/04/24 10:21:28;;;;;;;6.25;1.77;;;16.30;79.80;;;;;;5059146;28;20093;-74
2022/04/24 10:23:54;;;;;;;12.23;2.55;;;16.30;79.70;;;;;;5091886;28;20024;-74
2022/04/24 10:26:21;;;;;;;5.65;1.90;;;16.30;79.50;;;;;;5091311;28;20031;-73
2022/04/24 10:28:47;;;;;;;7.78;1.90;;;16.40;79.40;;;;;;5091769;28;20085;-73
2022/04/24 10:31:15;;;;;;;8.80;2.47;;;16.40;79.30;;;;;;5091221;28;20075;-73
2022/04/24 10:33:52;;;;;;;8.30;1.83;;;16.40;79.20;;;;;;5091835;28;20034;-73
2022/04/24 10:36:19;;;;;;;10.00;1.88;;;16.50;78.20;;;;;;5091059;28;20032;-73
2022/04/24 10:38:59;;;;;;;9.25;1.80;;;16.50;75.90;;;;;;5091660;28;20396;-73
2022/04/24 10:41:29;;;;;;;5.47;1.35;;;16.60;75.40;;;;;;5090908;28;20032;-73
2022/04/24 10:44:06;;;;;;;9.70;1.77;;;16.70;74.70;;;;;;5093586;28;20036;-74
2022/04/24 10:46:35;;;;;;;5.75;1.65;;;16.70;73.20;;;;;;5107533;28;20066;-74
2022/04/24 10:49:10;;;;;;;7.85;1.80;;;16.70;71.00;;;;;;5115865;28;20031;-72
2022/04/24 10:51:37;;;;;;;6.95;1.70;;;16.80;70.00;;;;;;5115685;28;20499;-73
2022/04/24 10:54:14;;;;;;;5.05;1.48;;;16.90;69.60;;;;;;5115412;28;20140;-78
2022/04/24 10:56:49;;;;;;;5.57;1.80;;;17.00;67.70;;;;;;5116104;28;20039;-74
2022/04/24 10:59:18;;;;;;;8.18;1.50;;;17.10;65.70;;;;;;5115186;28;20063;-73
2022/04/24 11:01:47;;;;;;;7.13;1.63;;;17.30;64.50;;;;;;5115826;28;20020;-73
2022/04/24 11:04:14;;;;;;;5.65;1.60;;;17.50;64.90;;;;;;5115023;28;20031;-73
2022/04/24 11:06:55;;;;;;;4.70;1.75;;;17.70;64.10;;;;;;5114433;28;20096;-72
2022/04/24 11:09:21;;;;;;;6.47;1.77;;;17.90;63.90;;;;;;5115270;28;20473;-75
2022/04/24 11:11:51;;;;;;;5.15;1.20;;;18.10;62.90;;;;;;5115216;28;20597;-75
2022/04/24 11:14:22;;;;;;;4.70;1.48;;;18.20;60.90;;;;;;5114461;28;20114;-74
2022/04/24 11:16:57;;;;;;;7.65;1.40;;;18.30;59.70;;;;;;5115444;28;20039;-74
2022/04/24 11:19:25;;;;;;;7.15;1.85;;;18.40;59.70;;;;;;5113203;28;20108;-75
2022/04/24 11:21:59;;;;;;;4.22;1.50;;;18.40;59.10;;;;;;5115462;28;20027;-74
2022/04/24 11:24:27;;;;;;;4.97;1.52;;;18.40;58.80;;;;;;5114654;28;20398;-74
2022/04/24 11:26:54;;;;;;;3.05;1.48;;;18.60;56.20;;;;;;5115302;28;20028;-74
2022/04/24 11:29:20;;;;;;;4.68;1.25;;;18.70;54.30;;;;;;5114565;28;20030;-73
2022/04/24 11:31:54;;;;;;;3.13;1.38;;;18.90;53.00;;;;;;5115062;28;20032;-74
2022/04/24 11:34:24;;;;;;;5.00;1.05;;;19.00;52.60;;;;;;5114488;28;20028;-74
2022/04/24 11:36:54;;;;;;;1.93;1.00;;;19.10;50.80;;;;;;5115041;28;20038;-74
2022/04/24 11:39:20;;;;;;;4.37;1.17;;;19.30;49.70;;;;;;5114282;28;20255;-74
2022/04/24 11:41:46;;;;;;;1.10;1.00;;;19.30;48.60;;;;;;5114243;28;20027;-74
2022/04/24 11:50:13;;;;;;;2.72;1.27;;;19.60;45.80;;;;;;5113905;28;20548;-74
2022/04/24 11:52:47;;;;;;;1.70;1.20;;;19.70;46.10;;;;;;5114413;28;20024;-75
2022/04/24 11:58:16;;;;;;;2.58;1.10;;;19.80;45.80;;;;;;5113682;28;20424;-73
2022/04/24 12:00:42;;;;;;;1.27;0.82;;;19.80;44.60;;;;;;5113943;28;20047;-74
2022/04/24 12:03:08;;;;;;;2.28;1.42;;;19.70;44.10;;;;;;5114321;28;20448;-76
2022/04/24 12:05:34;;;;;;;2.28;0.82;;;19.70;43.80;;;;;;5114767;28;20076;-74
2022/04/24 12:08:01;;;;;;;1.27;0.80;;;19.60;43.90;;;;;;5114271;28;20020;-75
2022/04/24 12:10:26;;;;;;;3.83;1.13;;;19.50;45.90;;;;;;5113971;27;20020;-75
2022/04/24 12:12:53;;;;;;;6.60;2.20;;;19.40;46.50;;;;;;5114280;28;20352;-75
2022/04/24 12:15:22;;;;;;;6.68;3.45;;;19.10;53.70;;;;;;5113824;28;20472;-75
2022/04/24 12:17:56;;;;;;;8.52;4.65;;;18.90;61.10;;;;;;5114580;28;20045;-75
2022/04/24 12:20:34;;;;;;;8.30;4.22;;;18.60;64.20;;;;;;5113872;28;20108;-75
2022/04/24 12:23:09;;;;;;;5.22;4.05;;;18.30;65.40;;;;;;5114393;28;20023;-74
2022/04/24 12:25:55;;;;;;;7.43;4.22;;;18.10;66.70;;;;;;5114426;28;20059;-74
2022/04/24 12:28:41;;;;;;;7.22;3.65;;;17.90;67.40;;;;;;5113571;28;20031;-74
2022/04/24 12:31:19;;;;;;;5.45;3.45;;;18.00;68.00;;;;;;5113894;28;20026;-74
2022/04/24 12:33:49;;;;;;;2.85;2.30;;;18.00;66.40;;;;;;5114153;28;20093;-74
2022/04/24 12:36:15;;;;;;;4.22;2.10;;;18.00;64.70;;;;;;5113024;28;20032;-75
2022/04/24 12:39:04;;;;;;;2.42;2.20;;;18.00;62.00;;;;;;5114110;28;20364;-74
2022/04/24 12:41:30;;;;;;;2.95;1.80;;;18.00;61.70;;;;;;5112172;28;20375;-73
2022/04/24 12:44:00;;;;;;;3.55;2.20;;;17.90;59.00;;;;;;5113843;28;20046;-74
2022/04/24 12:46:27;;;;;;;4.30;1.95;;;17.90;58.70;;;;;;5113279;28;20106;-75
2022/04/24 12:48:55;;;;;;;2.13;1.70;;;17.90;57.50;;;;;;5113292;28;20024;-74
2022/04/24 12:51:26;;;;;;;3.45;2.10;;;17.90;58.70;;;;;;5112993;28;20028;-74
2022/04/24 12:53:56;;;;;;;2.70;1.87;;;17.80;59.00;;;;;;5113741;28;20024;-74
2022/04/24 12:56:22;;;;;;;2.80;1.95;;;17.80;60.70;;;;;;5112945;28;20276;-74